Mound City, Missouri
Current Conditions -  °F | °C
As of 7:53 AM on Tuesday 21 Oct 2014 (Local Time) from KFNB Reporting Station
Clear Clear  
Wind Chill: 35°   Ceiling: Unl
Heat Index: 35°   Visibility: 10mi
Dew Point: 33°   Wind: 3mph
Humidity: 92%   Direction: 80°E
Pressure: 30.11"   Gusts: NA
Location:  40.13°N, 95.23°W
Report Text: KFNB 211253Z AUTO 08003KT 10SM CLR 02/01 A3011 RMK AO2 SLP199 T00170006
Loading
Personal Weather Stations






























Interactive Weather Map
Tropical Storm Tracking
New forecast layout! Learn more

10-Day Weather Forecast

Advertisements
Track Severe Weather on mobile